sensor_id;sensor_type;location;lat;lon;timestamp;P1;durP1;ratioP1;P2;durP2;ratioP2
13720;SDS011;6932;51.438;5.470;2022-10-31T00:00:59;9.23;;;5.00;;
13720;SDS011;6932;51.438;5.470;2022-10-31T00:03:25;10.10;;;5.00;;
13720;SDS011;6932;51.438;5.470;2022-10-31T00:05:51;9.57;;;4.80;;
13720;SDS011;6932;51.438;5.470;2022-10-31T00:08:18;10.77;;;4.93;;
13720;SDS011;6932;51.438;5.470;2022-10-31T00:10:44;11.20;;;5.20;;
13720;SDS011;6932;51.438;5.470;2022-10-31T00:13:11;8.97;;;4.97;;
13720;SDS011;6932;51.438;5.470;2022-10-31T00:15:39;10.57;;;5.13;;
13720;SDS011;6932;51.438;5.470;2022-10-31T00:18:06;10.13;;;5.30;;
13720;SDS011;6932;51.438;5.470;2022-10-31T00:20:33;12.47;;;5.73;;
13720;SDS011;6932;51.438;5.470;2022-10-31T00:23:00;9.90;;;5.20;;
13720;SDS011;6932;51.438;5.470;2022-10-31T00:25:27;14.00;;;6.20;;
13720;SDS011;6932;51.438;5.470;2022-10-31T00:27:58;10.00;;;5.07;;
13720;SDS011;6932;51.438;5.470;2022-10-31T00:30:28;10.33;;;5.50;;
13720;SDS011;6932;51.438;5.470;2022-10-31T00:32:54;10.33;;;5.30;;
13720;SDS011;6932;51.438;5.470;2022-10-31T00:35:19;10.43;;;5.47;;
13720;SDS011;6932;51.438;5.470;2022-10-31T00:37:45;10.20;;;5.13;;
13720;SDS011;6932;51.438;5.470;2022-10-31T00:40:11;9.47;;;5.03;;
13720;SDS011;6932;51.438;5.470;2022-10-31T00:42:37;10.00;;;4.97;;
13720;SDS011;6932;51.438;5.470;2022-10-31T00:45:06;9.80;;;5.30;;
13720;SDS011;6932;51.438;5.470;2022-10-31T00:47:36;10.60;;;5.30;;
13720;SDS011;6932;51.438;5.470;2022-10-31T00:50:03;10.17;;;5.70;;
13720;SDS011;6932;51.438;5.470;2022-10-31T00:52:30;9.70;;;4.90;;
13720;SDS011;6932;51.438;5.470;2022-10-31T00:54:56;10.50;;;5.10;;
13720;SDS011;6932;51.438;5.470;2022-10-31T00:57:22;11.43;;;5.67;;
13720;SDS011;6932;51.438;5.470;2022-10-31T00:59:48;10.73;;;5.20;;
13720;SDS011;6932;51.438;5.470;2022-10-31T01:02:13;10.17;;;5.53;;
13720;SDS011;6932;51.438;5.470;2022-10-31T01:04:39;11.80;;;5.20;;
13720;SDS011;6932;51.438;5.470;2022-10-31T01:07:05;10.90;;;5.57;;
13720;SDS011;6932;51.438;5.470;2022-10-31T01:09:30;10.77;;;5.57;;
13720;SDS011;6932;51.438;5.470;2022-10-31T01:11:56;10.80;;;5.73;;
13720;SDS011;6932;51.438;5.470;2022-10-31T01:14:22;10.20;;;5.50;;
13720;SDS011;6932;51.438;5.470;2022-10-31T01:16:47;10.93;;;5.47;;
13720;SDS011;6932;51.438;5.470;2022-10-31T01:19:13;9.80;;;5.53;;
13720;SDS011;6932;51.438;5.470;2022-10-31T01:21:39;11.33;;;5.73;;
13720;SDS011;6932;51.438;5.470;2022-10-31T01:24:05;9.97;;;5.63;;
13720;SDS011;6932;51.438;5.470;2022-10-31T01:26:31;10.00;;;5.73;;
13720;SDS011;6932;51.438;5.470;2022-10-31T01:28:59;9.50;;;5.60;;
13720;SDS011;6932;51.438;5.470;2022-10-31T01:31:29;9.90;;;5.53;;
13720;SDS011;6932;51.438;5.470;2022-10-31T01:33:59;10.47;;;5.53;;
13720;SDS011;6932;51.438;5.470;2022-10-31T01:36:29;10.17;;;5.70;;
13720;SDS011;6932;51.438;5.470;2022-10-31T01:39:03;9.90;;;5.80;;
13720;SDS011;6932;51.438;5.470;2022-10-31T01:41:37;10.67;;;5.40;;
13720;SDS011;6932;51.438;5.470;2022-10-31T01:46:40;11.97;;;5.70;;
13720;SDS011;6932;51.438;5.470;2022-10-31T01:52:40;11.80;;;5.80;;
13720;SDS011;6932;51.438;5.470;2022-10-31T01:55:18;11.90;;;6.47;;
13720;SDS011;6932;51.438;5.470;2022-10-31T01:57:51;9.73;;;6.03;;
13720;SDS011;6932;51.438;5.470;2022-10-31T02:00:22;11.60;;;5.93;;
13720;SDS011;6932;51.438;5.470;2022-10-31T02:02:48;9.60;;;5.77;;
13720;SDS011;6932;51.438;5.470;2022-10-31T02:05:16;9.53;;;5.77;;
13720;SDS011;6932;51.438;5.470;2022-10-31T02:07:57;10.00;;;5.90;;
13720;SDS011;6932;51.438;5.470;2022-10-31T02:10:27;11.40;;;6.10;;
13720;SDS011;6932;51.438;5.470;2022-10-31T02:12:56;9.93;;;5.37;;
13720;SDS011;6932;51.438;5.470;2022-10-31T02:15:26;9.33;;;5.40;;
13720;SDS011;6932;51.438;5.470;2022-10-31T02:17:53;10.57;;;5.57;;
13720;SDS011;6932;51.438;5.470;2022-10-31T02:20:19;10.60;;;5.63;;
13720;SDS011;6932;51.438;5.470;2022-10-31T02:29:14;10.77;;;5.63;;
13720;SDS011;6932;51.438;5.470;2022-10-31T02:38:32;10.57;;;5.80;;
13720;SDS011;6932;51.438;5.470;2022-10-31T02:44:45;11.60;;;6.30;;
13720;SDS011;6932;51.438;5.470;2022-10-31T02:47:26;10.63;;;6.50;;
13720;SDS011;6932;51.438;5.470;2022-10-31T02:49:59;11.37;;;6.20;;
13720;SDS011;6932;51.438;5.470;2022-10-31T02:52:43;9.57;;;5.87;;
13720;SDS011;6932;51.438;5.470;2022-10-31T02:55:10;12.23;;;6.47;;
13720;SDS011;6932;51.438;5.470;2022-10-31T02:57:51;11.77;;;6.70;;
13720;SDS011;6932;51.438;5.470;2022-10-31T03:00:27;11.33;;;6.03;;
13720;SDS011;6932;51.438;5.470;2022-10-31T03:03:14;12.33;;;6.67;;
13720;SDS011;6932;51.438;5.470;2022-10-31T03:05:49;13.37;;;6.50;;
13720;SDS011;6932;51.438;5.470;2022-10-31T03:08:31;10.90;;;6.90;;
13720;SDS011;6932;51.438;5.470;2022-10-31T03:11:20;14.93;;;6.73;;
13720;SDS011;6932;51.438;5.470;2022-10-31T03:14:00;12.23;;;7.40;;
13720;SDS011;6932;51.438;5.470;2022-10-31T03:16:51;12.03;;;6.80;;
13720;SDS011;6932;51.438;5.470;2022-10-31T03:19:25;11.77;;;7.60;;
13720;SDS011;6932;51.438;5.470;2022-10-31T03:22:04;12.03;;;6.87;;
13720;SDS011;6932;51.438;5.470;2022-10-31T03:24:50;12.77;;;7.07;;
13720;SDS011;6932;51.438;5.470;2022-10-31T03:27:19;12.30;;;7.30;;
13720;SDS011;6932;51.438;5.470;2022-10-31T03:29:56;10.73;;;7.13;;
13720;SDS011;6932;51.438;5.470;2022-10-31T03:35:00;11.33;;;7.37;;
13720;SDS011;6932;51.438;5.470;2022-10-31T03:37:30;11.73;;;7.43;;
13720;SDS011;6932;51.438;5.470;2022-10-31T03:39:59;16.23;;;8.03;;
13720;SDS011;6932;51.438;5.470;2022-10-31T03:42:30;13.43;;;7.73;;
13720;SDS011;6932;51.438;5.470;2022-10-31T03:45:06;14.67;;;8.37;;
13720;SDS011;6932;51.438;5.470;2022-10-31T03:47:36;14.93;;;8.23;;
13720;SDS011;6932;51.438;5.470;2022-10-31T03:50:04;13.87;;;8.00;;
13720;SDS011;6932;51.438;5.470;2022-10-31T03:52:35;15.93;;;9.37;;
13720;SDS011;6932;51.438;5.470;2022-10-31T03:55:31;14.00;;;8.30;;
13720;SDS011;6932;51.438;5.470;2022-10-31T03:58:25;13.90;;;8.40;;
13720;SDS011;6932;51.438;5.470;2022-10-31T04:01:02;14.87;;;8.47;;
13720;SDS011;6932;51.438;5.470;2022-10-31T04:03:34;14.10;;;8.63;;
13720;SDS011;6932;51.438;5.470;2022-10-31T04:06:04;14.63;;;8.40;;
13720;SDS011;6932;51.438;5.470;2022-10-31T04:08:37;17.80;;;9.17;;
13720;SDS011;6932;51.438;5.470;2022-10-31T04:11:10;19.97;;;9.10;;
13720;SDS011;6932;51.438;5.470;2022-10-31T04:13:40;14.47;;;9.13;;
13720;SDS011;6932;51.438;5.470;2022-10-31T04:16:10;16.53;;;9.37;;
13720;SDS011;6932;51.438;5.470;2022-10-31T04:18:39;13.77;;;8.87;;
13720;SDS011;6932;51.438;5.470;2022-10-31T04:21:06;15.17;;;9.00;;
13720;SDS011;6932;51.438;5.470;2022-10-31T04:23:33;15.07;;;9.00;;
13720;SDS011;6932;51.438;5.470;2022-10-31T04:26:01;16.40;;;8.67;;
13720;SDS011;6932;51.438;5.470;2022-10-31T04:28:27;14.60;;;8.70;;
13720;SDS011;6932;51.438;5.470;2022-10-31T04:30:53;14.10;;;8.47;;
13720;SDS011;6932;51.438;5.470;2022-10-31T04:33:19;14.17;;;8.73;;
13720;SDS011;6932;51.438;5.470;2022-10-31T04:35:45;14.53;;;8.53;;
13720;SDS011;6932;51.438;5.470;2022-10-31T04:38:12;14.83;;;8.30;;
13720;SDS011;6932;51.438;5.470;2022-10-31T04:40:39;15.83;;;9.07;;
13720;SDS011;6932;51.438;5.470;2022-10-31T04:43:05;12.70;;;8.60;;
13720;SDS011;6932;51.438;5.470;2022-10-31T04:45:31;13.87;;;8.60;;
13720;SDS011;6932;51.438;5.470;2022-10-31T04:47:57;17.23;;;8.63;;
13720;SDS011;6932;51.438;5.470;2022-10-31T04:50:22;16.50;;;8.83;;
13720;SDS011;6932;51.438;5.470;2022-10-31T04:52:48;13.57;;;8.60;;
13720;SDS011;6932;51.438;5.470;2022-10-31T04:55:14;14.67;;;8.57;;
13720;SDS011;6932;51.438;5.470;2022-10-31T04:57:44;16.37;;;8.90;;
13720;SDS011;6932;51.438;5.470;2022-10-31T05:00:15;15.50;;;9.17;;
13720;SDS011;6932;51.438;5.470;2022-10-31T05:02:44;13.37;;;8.50;;
13720;SDS011;6932;51.438;5.470;2022-10-31T05:05:20;14.80;;;8.20;;
13720;SDS011;6932;51.438;5.470;2022-10-31T05:07:49;14.23;;;8.40;;
13720;SDS011;6932;51.438;5.470;2022-10-31T05:10:17;16.80;;;9.07;;
13720;SDS011;6932;51.438;5.470;2022-10-31T05:12:47;15.07;;;8.87;;
13720;SDS011;6932;51.438;5.470;2022-10-31T05:15:20;14.40;;;9.27;;
13720;SDS011;6932;51.438;5.470;2022-10-31T05:17:47;15.60;;;9.33;;
13720;SDS011;6932;51.438;5.470;2022-10-31T05:20:14;15.17;;;8.90;;
13720;SDS011;6932;51.438;5.470;2022-10-31T05:22:42;14.20;;;8.40;;
13720;SDS011;6932;51.438;5.470;2022-10-31T06:56:54;15.53;;;9.77;;
13720;SDS011;6932;51.438;5.470;2022-10-31T06:59:21;15.87;;;9.73;;
13720;SDS011;6932;51.438;5.470;2022-10-31T07:01:53;14.97;;;9.37;;
13720;SDS011;6932;51.438;5.470;2022-10-31T07:04:18;15.70;;;10.47;;
13720;SDS011;6932;51.438;5.470;2022-10-31T07:06:44;17.07;;;10.87;;
13720;SDS011;6932;51.438;5.470;2022-10-31T07:09:10;16.37;;;10.33;;
13720;SDS011;6932;51.438;5.470;2022-10-31T07:11:37;14.83;;;10.03;;
13720;SDS011;6932;51.438;5.470;2022-10-31T07:14:03;16.97;;;10.83;;
13720;SDS011;6932;51.438;5.470;2022-10-31T07:16:29;16.13;;;10.63;;
13720;SDS011;6932;51.438;5.470;2022-10-31T07:18:55;14.70;;;10.20;;
13720;SDS011;6932;51.438;5.470;2022-10-31T07:21:20;16.97;;;10.57;;
13720;SDS011;6932;51.438;5.470;2022-10-31T07:23:49;16.43;;;10.17;;
13720;SDS011;6932;51.438;5.470;2022-10-31T07:26:15;15.40;;;10.00;;
13720;SDS011;6932;51.438;5.470;2022-10-31T07:28:41;15.47;;;10.40;;
13720;SDS011;6932;51.438;5.470;2022-10-31T07:31:07;16.87;;;11.03;;
13720;SDS011;6932;51.438;5.470;2022-10-31T07:33:33;15.70;;;10.97;;
13720;SDS011;6932;51.438;5.470;2022-10-31T07:36:00;16.40;;;11.03;;
13720;SDS011;6932;51.438;5.470;2022-10-31T07:38:26;15.50;;;10.53;;
13720;SDS011;6932;51.438;5.470;2022-10-31T07:40:52;16.37;;;10.33;;
13720;SDS011;6932;51.438;5.470;2022-10-31T07:43:18;17.63;;;10.17;;
13720;SDS011;6932;51.438;5.470;2022-10-31T07:45:48;16.37;;;10.20;;
13720;SDS011;6932;51.438;5.470;2022-10-31T07:48:16;15.90;;;10.97;;
13720;SDS011;6932;51.438;5.470;2022-10-31T07:50:42;16.87;;;10.17;;
13720;SDS011;6932;51.438;5.470;2022-10-31T07:53:10;15.93;;;10.37;;
13720;SDS011;6932;51.438;5.470;2022-10-31T07:55:38;15.73;;;10.33;;
13720;SDS011;6932;51.438;5.470;2022-10-31T08:00:36;16.43;;;10.20;;
13720;SDS011;6932;51.438;5.470;2022-10-31T08:03:05;16.40;;;11.00;;
13720;SDS011;6932;51.438;5.470;2022-10-31T08:05:36;17.33;;;10.47;;
13720;SDS011;6932;51.438;5.470;2022-10-31T08:08:03;16.87;;;11.30;;
13720;SDS011;6932;51.438;5.470;2022-10-31T08:10:30;16.00;;;10.93;;
13720;SDS011;6932;51.438;5.470;2022-10-31T08:13:00;16.83;;;11.00;;
13720;SDS011;6932;51.438;5.470;2022-10-31T08:15:30;16.90;;;10.77;;
13720;SDS011;6932;51.438;5.470;2022-10-31T08:17:58;15.60;;;10.37;;
13720;SDS011;6932;51.438;5.470;2022-10-31T08:20:24;16.90;;;11.27;;
13720;SDS011;6932;51.438;5.470;2022-10-31T08:22:54;17.30;;;11.43;;
13720;SDS011;6932;51.438;5.470;2022-10-31T08:25:31;16.60;;;11.20;;
13720;SDS011;6932;51.438;5.470;2022-10-31T08:27:58;17.67;;;11.93;;
13720;SDS011;6932;51.438;5.470;2022-10-31T08:30:29;18.17;;;11.83;;
13720;SDS011;6932;51.438;5.470;2022-10-31T08:33:00;18.60;;;11.50;;
13720;SDS011;6932;51.438;5.470;2022-10-31T08:35:35;14.97;;;10.70;;
13720;SDS011;6932;51.438;5.470;2022-10-31T08:38:01;19.37;;;12.17;;
13720;SDS011;6932;51.438;5.470;2022-10-31T08:40:28;15.87;;;11.30;;
13720;SDS011;6932;51.438;5.470;2022-10-31T08:45:32;16.93;;;11.43;;
13720;SDS011;6932;51.438;5.470;2022-10-31T08:48:01;18.70;;;11.57;;
13720;SDS011;6932;51.438;5.470;2022-10-31T08:50:31;16.83;;;12.07;;
13720;SDS011;6932;51.438;5.470;2022-10-31T08:53:06;16.50;;;11.77;;
13720;SDS011;6932;51.438;5.470;2022-10-31T08:55:38;18.17;;;11.93;;
13720;SDS011;6932;51.438;5.470;2022-10-31T08:58:06;19.17;;;12.20;;
13720;SDS011;6932;51.438;5.470;2022-10-31T09:00:36;17.53;;;12.40;;
13720;SDS011;6932;51.438;5.470;2022-10-31T09:03:04;18.27;;;12.20;;
13720;SDS011;6932;51.438;5.470;2022-10-31T09:05:34;20.03;;;12.90;;
13720;SDS011;6932;51.438;5.470;2022-10-31T09:08:00;19.63;;;13.27;;
13720;SDS011;6932;51.438;5.470;2022-10-31T09:10:46;18.60;;;12.73;;
13720;SDS011;6932;51.438;5.470;2022-10-31T09:13:19;21.80;;;13.27;;
13720;SDS011;6932;51.438;5.470;2022-10-31T09:15:47;17.93;;;12.57;;
13720;SDS011;6932;51.438;5.470;2022-10-31T09:18:15;20.37;;;13.17;;
13720;SDS011;6932;51.438;5.470;2022-10-31T09:20:44;18.03;;;12.53;;
13720;SDS011;6932;51.438;5.470;2022-10-31T09:23:13;18.93;;;12.53;;
13720;SDS011;6932;51.438;5.470;2022-10-31T09:25:43;20.77;;;13.37;;
13720;SDS011;6932;51.438;5.470;2022-10-31T09:28:11;18.33;;;12.70;;
13720;SDS011;6932;51.438;5.470;2022-10-31T09:30:39;18.50;;;13.10;;
13720;SDS011;6932;51.438;5.470;2022-10-31T09:33:06;19.20;;;13.20;;
13720;SDS011;6932;51.438;5.470;2022-10-31T09:35:37;18.53;;;13.10;;
13720;SDS011;6932;51.438;5.470;2022-10-31T09:38:14;19.80;;;12.63;;
13720;SDS011;6932;51.438;5.470;2022-10-31T09:40:45;18.57;;;13.10;;
13720;SDS011;6932;51.438;5.470;2022-10-31T09:43:34;23.70;;;13.70;;
13720;SDS011;6932;51.438;5.470;2022-10-31T09:51:55;21.83;;;14.00;;
13720;SDS011;6932;51.438;5.470;2022-10-31T09:57:20;21.20;;;14.40;;
13720;SDS011;6932;51.438;5.470;2022-10-31T09:59:53;23.57;;;15.33;;
13720;SDS011;6932;51.438;5.470;2022-10-31T10:02:30;24.20;;;14.47;;
13720;SDS011;6932;51.438;5.470;2022-10-31T10:05:22;23.90;;;15.30;;
13720;SDS011;6932;51.438;5.470;2022-10-31T10:08:05;21.97;;;14.50;;
13720;SDS011;6932;51.438;5.470;2022-10-31T10:10:44;21.40;;;14.27;;
13720;SDS011;6932;51.438;5.470;2022-10-31T10:16:15;21.63;;;15.07;;
13720;SDS011;6932;51.438;5.470;2022-10-31T10:25:22;24.03;;;15.70;;
13720;SDS011;6932;51.438;5.470;2022-10-31T10:30:50;25.90;;;16.37;;
13720;SDS011;6932;51.438;5.470;2022-10-31T10:33:40;24.33;;;16.20;;
13720;SDS011;6932;51.438;5.470;2022-10-31T10:39:07;23.87;;;15.27;;
13720;SDS011;6932;51.438;5.470;2022-10-31T10:41:57;23.97;;;15.90;;
13720;SDS011;6932;51.438;5.470;2022-10-31T10:44:47;24.73;;;15.10;;
13720;SDS011;6932;51.438;5.470;2022-10-31T10:47:40;25.00;;;14.77;;
13720;SDS011;6932;51.438;5.470;2022-10-31T10:53:00;26.83;;;15.03;;
13720;SDS011;6932;51.438;5.470;2022-10-31T10:59:11;23.57;;;15.07;;
13720;SDS011;6932;51.438;5.470;2022-10-31T11:01:43;24.40;;;14.57;;
13720;SDS011;6932;51.438;5.470;2022-10-31T11:07:00;22.40;;;14.60;;
13720;SDS011;6932;51.438;5.470;2022-10-31T11:09:31;21.93;;;14.37;;
13720;SDS011;6932;51.438;5.470;2022-10-31T11:11:58;22.93;;;14.00;;
13720;SDS011;6932;51.438;5.470;2022-10-31T11:14:26;24.53;;;14.30;;
13720;SDS011;6932;51.438;5.470;2022-10-31T11:16:55;21.47;;;13.53;;
13720;SDS011;6932;51.438;5.470;2022-10-31T11:19:36;19.47;;;13.73;;
13720;SDS011;6932;51.438;5.470;2022-10-31T11:22:06;21.33;;;14.30;;
13720;SDS011;6932;51.438;5.470;2022-10-31T11:24:40;20.00;;;13.50;;
13720;SDS011;6932;51.438;5.470;2022-10-31T11:27:21;20.87;;;13.70;;
13720;SDS011;6932;51.438;5.470;2022-10-31T11:29:50;21.20;;;13.60;;
13720;SDS011;6932;51.438;5.470;2022-10-31T11:32:19;22.93;;;13.90;;
13720;SDS011;6932;51.438;5.470;2022-10-31T11:34:56;20.80;;;13.87;;
13720;SDS011;6932;51.438;5.470;2022-10-31T11:37:32;21.53;;;14.53;;
13720;SDS011;6932;51.438;5.470;2022-10-31T11:40:05;22.07;;;14.23;;
13720;SDS011;6932;51.438;5.470;2022-10-31T11:42:41;21.53;;;13.83;;
13720;SDS011;6932;51.438;5.470;2022-10-31T11:47:55;22.80;;;14.30;;
13720;SDS011;6932;51.438;5.470;2022-10-31T11:50:24;21.83;;;14.60;;
13720;SDS011;6932;51.438;5.470;2022-10-31T11:52:56;22.67;;;13.77;;
13720;SDS011;6932;51.438;5.470;2022-10-31T11:55:34;24.50;;;14.43;;
13720;SDS011;6932;51.438;5.470;2022-10-31T11:58:03;22.47;;;13.60;;
13720;SDS011;6932;51.438;5.470;2022-10-31T12:00:48;23.23;;;13.97;;
13720;SDS011;6932;51.438;5.470;2022-10-31T12:06:05;22.07;;;13.73;;
13720;SDS011;6932;51.438;5.470;2022-10-31T12:08:43;20.70;;;13.27;;
13720;SDS011;6932;51.438;5.470;2022-10-31T12:22:48;19.70;;;11.27;;
13720;SDS011;6932;51.438;5.470;2022-10-31T12:25:56;22.23;;;11.20;;
13720;SDS011;6932;51.438;5.470;2022-10-31T12:34:28;18.37;;;10.23;;
13720;SDS011;6932;51.438;5.470;2022-10-31T12:37:46;19.33;;;10.77;;
13720;SDS011;6932;51.438;5.470;2022-10-31T12:43:49;21.03;;;10.40;;
13720;SDS011;6932;51.438;5.470;2022-10-31T12:52:23;15.90;;;9.83;;
13720;SDS011;6932;51.438;5.470;2022-10-31T12:58:08;17.10;;;9.00;;
13720;SDS011;6932;51.438;5.470;2022-10-31T13:01:01;18.77;;;9.60;;
13720;SDS011;6932;51.438;5.470;2022-10-31T13:03:37;16.80;;;9.13;;
13720;SDS011;6932;51.438;5.470;2022-10-31T13:06:35;15.40;;;8.33;;
13720;SDS011;6932;51.438;5.470;2022-10-31T13:09:14;15.57;;;8.27;;
13720;SDS011;6932;51.438;5.470;2022-10-31T13:11:56;18.03;;;8.73;;
13720;SDS011;6932;51.438;5.470;2022-10-31T13:14:39;14.93;;;8.60;;
13720;SDS011;6932;51.438;5.470;2022-10-31T13:19:55;17.67;;;9.03;;
13720;SDS011;6932;51.438;5.470;2022-10-31T13:22:52;15.33;;;9.37;;
13720;SDS011;6932;51.438;5.470;2022-10-31T13:25:30;16.37;;;9.03;;
13720;SDS011;6932;51.438;5.470;2022-10-31T13:31:12;15.87;;;9.07;;
13720;SDS011;6932;51.438;5.470;2022-10-31T13:33:49;15.43;;;9.00;;
13720;SDS011;6932;51.438;5.470;2022-10-31T13:39:01;15.00;;;9.10;;
13720;SDS011;6932;51.438;5.470;2022-10-31T13:44:47;16.20;;;9.23;;
13720;SDS011;6932;51.438;5.470;2022-10-31T13:47:29;18.70;;;9.77;;
13720;SDS011;6932;51.438;5.470;2022-10-31T13:52:42;17.83;;;9.17;;
13720;SDS011;6932;51.438;5.470;2022-10-31T13:55:34;15.83;;;8.93;;
13720;SDS011;6932;51.438;5.470;2022-10-31T13:58:05;14.40;;;8.50;;
13720;SDS011;6932;51.438;5.470;2022-10-31T14:01:02;14.37;;;9.00;;
13720;SDS011;6932;51.438;5.470;2022-10-31T14:03:36;14.70;;;8.27;;
13720;SDS011;6932;51.438;5.470;2022-10-31T14:06:04;14.70;;;8.37;;
13720;SDS011;6932;51.438;5.470;2022-10-31T14:08:34;14.50;;;7.93;;
13720;SDS011;6932;51.438;5.470;2022-10-31T14:11:05;14.73;;;8.23;;
13720;SDS011;6932;51.438;5.470;2022-10-31T14:16:14;18.40;;;8.53;;
13720;SDS011;6932;51.438;5.470;2022-10-31T14:18:50;19.57;;;8.53;;
13720;SDS011;6932;51.438;5.470;2022-10-31T14:21:46;15.63;;;7.80;;
13720;SDS011;6932;51.438;5.470;2022-10-31T14:27:32;13.93;;;8.00;;
13720;SDS011;6932;51.438;5.470;2022-10-31T14:29:50;15.33;;;8.47;;
13720;SDS011;6932;51.438;5.470;2022-10-31T14:32:23;14.17;;;7.97;;
13720;SDS011;6932;51.438;5.470;2022-10-31T14:34:53;13.93;;;7.97;;
13720;SDS011;6932;51.438;5.470;2022-10-31T14:52:11;15.13;;;7.40;;
13720;SDS011;6932;51.438;5.470;2022-10-31T14:54:42;13.60;;;7.50;;
13720;SDS011;6932;51.438;5.470;2022-10-31T14:57:21;15.93;;;7.47;;
13720;SDS011;6932;51.438;5.470;2022-10-31T14:59:54;12.93;;;7.67;;
13720;SDS011;6932;51.438;5.470;2022-10-31T15:03:13;13.07;;;7.40;;
13720;SDS011;6932;51.438;5.470;2022-10-31T15:05:21;12.63;;;7.80;;
13720;SDS011;6932;51.438;5.470;2022-10-31T15:07:51;13.77;;;8.07;;
13720;SDS011;6932;51.438;5.470;2022-10-31T15:10:25;14.23;;;7.87;;
13720;SDS011;6932;51.438;5.470;2022-10-31T15:15:56;15.63;;;7.70;;
13720;SDS011;6932;51.438;5.470;2022-10-31T15:18:26;13.47;;;7.27;;
13720;SDS011;6932;51.438;5.470;2022-10-31T15:20:54;15.97;;;7.67;;
13720;SDS011;6932;51.438;5.470;2022-10-31T15:23:28;16.07;;;7.87;;
13720;SDS011;6932;51.438;5.470;2022-10-31T15:25:58;15.17;;;7.70;;
13720;SDS011;6932;51.438;5.470;2022-10-31T15:28:26;14.70;;;7.83;;
13720;SDS011;6932;51.438;5.470;2022-10-31T15:30:54;15.00;;;6.83;;
13720;SDS011;6932;51.438;5.470;2022-10-31T15:33:29;13.47;;;7.20;;
13720;SDS011;6932;51.438;5.470;2022-10-31T15:36:04;14.27;;;7.53;;
13720;SDS011;6932;51.438;5.470;2022-10-31T15:38:30;13.87;;;6.90;;
13720;SDS011;6932;51.438;5.470;2022-10-31T15:41:06;14.90;;;6.90;;
13720;SDS011;6932;51.438;5.470;2022-10-31T15:44:04;12.73;;;6.83;;
13720;SDS011;6932;51.438;5.470;2022-10-31T15:47:19;12.67;;;6.60;;
13720;SDS011;6932;51.438;5.470;2022-10-31T15:49:49;14.40;;;6.77;;
13720;SDS011;6932;51.438;5.470;2022-10-31T15:55:18;15.03;;;6.63;;
13720;SDS011;6932;51.438;5.470;2022-10-31T15:57:53;16.70;;;6.80;;
13720;SDS011;6932;51.438;5.470;2022-10-31T16:00:24;11.60;;;6.40;;
13720;SDS011;6932;51.438;5.470;2022-10-31T16:05:44;13.37;;;6.70;;
13720;SDS011;6932;51.438;5.470;2022-10-31T16:08:31;11.97;;;6.20;;
13720;SDS011;6932;51.438;5.470;2022-10-31T16:13:33;12.83;;;5.80;;
13720;SDS011;6932;51.438;5.470;2022-10-31T16:16:12;12.60;;;5.60;;
13720;SDS011;6932;51.438;5.470;2022-10-31T16:18:41;10.57;;;5.57;;
13720;SDS011;6932;51.438;5.470;2022-10-31T16:21:08;9.83;;;5.97;;
13720;SDS011;6932;51.438;5.470;2022-10-31T16:23:35;14.00;;;6.10;;
13720;SDS011;6932;51.438;5.470;2022-10-31T16:26:07;16.03;;;6.27;;
13720;SDS011;6932;51.438;5.470;2022-10-31T16:28:34;11.60;;;6.00;;
13720;SDS011;6932;51.438;5.470;2022-10-31T16:31:05;13.67;;;6.10;;
13720;SDS011;6932;51.438;5.470;2022-10-31T16:33:39;15.93;;;5.90;;
13720;SDS011;6932;51.438;5.470;2022-10-31T16:39:10;10.67;;;5.90;;
13720;SDS011;6932;51.438;5.470;2022-10-31T16:41:42;13.30;;;5.77;;
13720;SDS011;6932;51.438;5.470;2022-10-31T16:44:24;11.77;;;5.60;;
13720;SDS011;6932;51.438;5.470;2022-10-31T16:47:07;12.93;;;5.50;;
13720;SDS011;6932;51.438;5.470;2022-10-31T16:49:42;13.80;;;5.60;;
13720;SDS011;6932;51.438;5.470;2022-10-31T16:52:11;13.63;;;5.93;;
13720;SDS011;6932;51.438;5.470;2022-10-31T16:54:37;13.30;;;5.50;;
13720;SDS011;6932;51.438;5.470;2022-10-31T16:57:04;13.40;;;6.00;;
13720;SDS011;6932;51.438;5.470;2022-10-31T16:59:31;16.80;;;6.10;;
13720;SDS011;6932;51.438;5.470;2022-10-31T17:01:59;11.80;;;5.23;;
13720;SDS011;6932;51.438;5.470;2022-10-31T17:04:28;9.90;;;5.20;;
13720;SDS011;6932;51.438;5.470;2022-10-31T17:06:53;12.37;;;5.60;;
13720;SDS011;6932;51.438;5.470;2022-10-31T17:09:19;11.53;;;5.30;;
13720;SDS011;6932;51.438;5.470;2022-10-31T17:11:49;11.30;;;5.70;;
13720;SDS011;6932;51.438;5.470;2022-10-31T17:14:17;11.93;;;5.47;;
13720;SDS011;6932;51.438;5.470;2022-10-31T17:16:44;15.17;;;5.30;;
13720;SDS011;6932;51.438;5.470;2022-10-31T17:19:10;11.10;;;5.67;;
13720;SDS011;6932;51.438;5.470;2022-10-31T17:21:36;13.53;;;5.17;;
13720;SDS011;6932;51.438;5.470;2022-10-31T17:24:04;9.73;;;5.10;;
13720;SDS011;6932;51.438;5.470;2022-10-31T17:26:30;10.57;;;4.93;;
13720;SDS011;6932;51.438;5.470;2022-10-31T17:28:56;12.23;;;5.00;;
13720;SDS011;6932;51.438;5.470;2022-10-31T17:31:27;13.03;;;5.07;;
13720;SDS011;6932;51.438;5.470;2022-10-31T17:33:56;12.33;;;4.90;;
13720;SDS011;6932;51.438;5.470;2022-10-31T17:36:27;14.63;;;5.53;;
13720;SDS011;6932;51.438;5.470;2022-10-31T17:38:53;11.83;;;4.87;;
13720;SDS011;6932;51.438;5.470;2022-10-31T17:41:18;11.17;;;5.07;;
13720;SDS011;6932;51.438;5.470;2022-10-31T17:43:44;11.97;;;5.23;;
13720;SDS011;6932;51.438;5.470;2022-10-31T17:46:10;8.43;;;4.70;;
13720;SDS011;6932;51.438;5.470;2022-10-31T17:48:36;11.53;;;4.93;;
13720;SDS011;6932;51.438;5.470;2022-10-31T17:51:03;10.83;;;4.60;;
13720;SDS011;6932;51.438;5.470;2022-10-31T17:53:32;9.77;;;4.50;;
13720;SDS011;6932;51.438;5.470;2022-10-31T17:56:03;10.17;;;4.87;;
13720;SDS011;6932;51.438;5.470;2022-10-31T17:58:32;10.40;;;4.83;;
13720;SDS011;6932;51.438;5.470;2022-10-31T18:01:05;10.50;;;4.77;;
13720;SDS011;6932;51.438;5.470;2022-10-31T18:03:42;9.60;;;4.43;;
13720;SDS011;6932;51.438;5.470;2022-10-31T18:06:12;13.40;;;5.30;;
13720;SDS011;6932;51.438;5.470;2022-10-31T18:08:40;11.77;;;5.00;;
13720;SDS011;6932;51.438;5.470;2022-10-31T18:11:08;10.30;;;5.03;;
13720;SDS011;6932;51.438;5.470;2022-10-31T18:13:42;10.97;;;4.50;;
13720;SDS011;6932;51.438;5.470;2022-10-31T18:16:08;10.83;;;5.70;;
13720;SDS011;6932;51.438;5.470;2022-10-31T18:18:37;11.80;;;5.50;;
13720;SDS011;6932;51.438;5.470;2022-10-31T18:21:06;12.93;;;5.23;;
13720;SDS011;6932;51.438;5.470;2022-10-31T18:23:32;10.50;;;5.10;;
13720;SDS011;6932;51.438;5.470;2022-10-31T18:25:58;15.47;;;5.43;;
13720;SDS011;6932;51.438;5.470;2022-10-31T18:28:24;10.93;;;4.70;;
13720;SDS011;6932;51.438;5.470;2022-10-31T18:30:52;13.37;;;5.40;;
13720;SDS011;6932;51.438;5.470;2022-10-31T18:33:20;10.30;;;4.57;;
13720;SDS011;6932;51.438;5.470;2022-10-31T18:35:51;10.57;;;5.10;;
13720;SDS011;6932;51.438;5.470;2022-10-31T18:38:20;9.23;;;4.60;;
13720;SDS011;6932;51.438;5.470;2022-10-31T18:40:50;11.43;;;4.80;;
13720;SDS011;6932;51.438;5.470;2022-10-31T18:43:16;10.53;;;5.10;;
13720;SDS011;6932;51.438;5.470;2022-10-31T18:45:42;11.30;;;5.40;;
13720;SDS011;6932;51.438;5.470;2022-10-31T18:48:15;12.43;;;4.93;;
13720;SDS011;6932;51.438;5.470;2022-10-31T18:50:41;10.43;;;4.97;;
13720;SDS011;6932;51.438;5.470;2022-10-31T18:53:07;11.43;;;4.80;;
13720;SDS011;6932;51.438;5.470;2022-10-31T18:55:37;10.73;;;5.30;;
13720;SDS011;6932;51.438;5.470;2022-10-31T18:58:04;12.13;;;5.17;;
13720;SDS011;6932;51.438;5.470;2022-10-31T19:00:30;11.30;;;5.33;;
13720;SDS011;6932;51.438;5.470;2022-10-31T19:02:56;12.40;;;4.90;;
13720;SDS011;6932;51.438;5.470;2022-10-31T19:05:21;10.50;;;4.97;;
13720;SDS011;6932;51.438;5.470;2022-10-31T19:07:47;11.07;;;5.00;;
13720;SDS011;6932;51.438;5.470;2022-10-31T19:10:13;14.83;;;5.20;;
13720;SDS011;6932;51.438;5.470;2022-10-31T19:12:39;11.33;;;5.03;;